Greenland, AR

7:45 AM CST on December 06, 2016 (GMT -0600)
Low Gap Road | | Change Station

Elev 2064 ft 35.92 °N, 94.12 °W | Updated 16 seconds ago

Overcast
Overcast
39.2 °F
Feels Like 36 °F
N
5.0
Wind Variable Wind from South

Today
High -- | Low -- °F
--% Chance of Precip.
Yesterday
High -- | Low -- °F
Precip. -- in
Pressure 29.86 in
Visibility 9.0 miles
Clouds Overcast 1300 ft
Windchill 36 °F
Dew Point 38 °F
Humidity 98%
Rainfall 0.00 in
Snow Depth Not available.
7:13 AM 5:02 PM
Waxing Crescent, 42% visible
METAR KFYV 061253Z 35006KT 9SM OVC013 06/04 A2986 RMK AO2 PRESRR SLP112 T00560044
Pressure 29.86 in
Visibility 9.0 miles
Clouds Overcast 1300 ft
Windchill 36 °F
Dew Point 38 °F
Humidity 98%
Rainfall 0.00 in
Snow Depth Not available.
7:13 AM 5:02 PM
Waxing Crescent, 42% visible
METAR KFYV 061253Z 35006KT 9SM OVC013 06/04 A2986 RMK AO2 PRESRR SLP112 T00560044

10-Day Weather Forecast

Almanac

Astronomy

Dec. 06, 2016 Rise Set
Actual Time
Civil Twilight
Nautical Twilight
Astronomical Twilight
Moon
Length of Visible Light
Length of Day
Tomorrow will be .
, % of the Moon is Illuminated

Today's Extremes

State Highs State Lows

Community

WunderPhotos

Upload Photos

1,955,936 photos uploaded!

WunderBlog® & News

Nearby

Air Quality

  Air Quality AQ Index Pollutant
Not available.

Snow Depth

Station Depth Elevation

Earthquake Activity

City Distance Mag. Time & Date
Minimum magnitude displayed is 2.5.

Coastal Water Temperatures

Place Temperature

Stations

Nearby Weather Stations

Station Location Temp. Windchill Dew Point Humidity Wind Precip. Elev Updated Type
                   

Watches & Warnings

There are currently no watches in effect.